createdAt,value
2018-11-02T00:02:22.232Z,78.91
2018-11-02T00:04:51.030Z,78.71
2018-11-02T00:07:35.991Z,78.71
2018-11-02T00:10:18.883Z,78.89
2018-11-02T00:12:46.919Z,78.45
2018-11-02T00:15:14.924Z,78.94
2018-11-02T00:17:42.913Z,78.97
2018-11-02T00:20:10.821Z,78.41
2018-11-02T00:22:39.487Z,78.89
2018-11-02T00:25:07.497Z,78.97
2018-11-02T00:27:36.460Z,78.55
2018-11-02T00:30:04.770Z,78.47
2018-11-02T00:32:32.743Z,78.89
2018-11-02T00:35:00.873Z,78.45
2018-11-02T00:37:28.925Z,79.11
2018-11-02T00:39:58.260Z,78.59
2018-11-02T00:42:29.502Z,78.75
2018-11-02T00:44:57.516Z,78.78
2018-11-02T00:47:25.552Z,78.79
2018-11-02T00:49:53.613Z,78.86
2018-11-02T00:52:21.615Z,79.02
2018-11-02T00:54:49.741Z,79.05
2018-11-02T00:57:17.749Z,79.23
2018-11-02T00:59:45.702Z,79.47
2018-11-02T01:02:13.695Z,79.22
2018-11-02T01:04:41.717Z,79.02
2018-11-02T01:07:09.717Z,78.82
2018-11-02T01:09:37.729Z,78.66
2018-11-02T01:12:05.905Z,78.93
2018-11-02T01:14:33.920Z,78.77
2018-11-02T01:17:01.954Z,79.21
2018-11-02T01:19:32.781Z,79.22
2018-11-02T01:22:03.380Z,78.52
2018-11-02T01:24:31.644Z,79.05
2018-11-02T01:26:59.669Z,79.28
2018-11-02T01:29:28.100Z,79.07
2018-11-02T01:31:56.404Z,78.13
2018-11-02T01:34:24.470Z,78.67
2018-11-02T01:36:52.586Z,78.37
2018-11-02T01:39:20.709Z,79.10
2018-11-02T01:41:48.858Z,78.71
2018-11-02T01:44:16.841Z,79.39
2018-11-02T01:46:44.926Z,79.48
2018-11-02T01:49:13.287Z,78.99
2018-11-02T01:51:41.387Z,78.72
2018-11-02T01:54:09.309Z,78.83
2018-11-02T01:56:37.389Z,79.13
2018-11-02T01:59:05.745Z,78.95
2018-11-02T02:01:33.760Z,79.02
2018-11-02T02:04:02.716Z,79.92
2018-11-02T02:06:30.686Z,79.25
2018-11-02T02:08:58.724Z,79.38
2018-11-02T02:11:26.769Z,78.93
2018-11-02T02:13:54.781Z,79.12
2018-11-02T02:16:22.751Z,78.00
2018-11-02T02:18:50.884Z,78.58
2018-11-02T02:21:18.914Z,77.00
2018-11-02T02:23:46.979Z,78.25
2018-11-02T02:26:15.133Z,77.72
2018-11-02T02:28:43.129Z,78.25
2018-11-02T02:31:11.201Z,77.95
2018-11-02T02:33:39.280Z,77.60
2018-11-02T02:36:07.451Z,78.82
2018-11-02T02:38:35.436Z,78.82
2018-11-02T02:41:03.541Z,78.98
2018-11-02T02:43:32.837Z,78.90
2018-11-02T02:46:00.814Z,78.24
2018-11-02T02:48:28.841Z,78.67
2018-11-02T02:50:56.849Z,79.00
2018-11-02T02:53:24.828Z,78.92
2018-11-02T02:55:52.803Z,78.31
2018-11-02T02:58:20.862Z,78.54
2018-11-02T03:00:48.801Z,77.97
2018-11-02T03:03:16.892Z,78.48
2018-11-02T03:05:44.937Z,77.26
2018-11-02T03:08:12.870Z,78.70
2018-11-02T03:10:41.007Z,79.01
2018-11-02T03:13:08.933Z,77.70
2018-11-02T03:15:36.949Z,78.05
2018-11-02T03:18:05.105Z,77.45
2018-11-02T03:20:33.047Z,76.86
2018-11-02T03:23:01.089Z,78.04
2018-11-02T03:25:29.145Z,78.80
2018-11-02T03:27:57.199Z,78.84
2018-11-02T03:30:25.201Z,78.81
2018-11-02T03:32:53.211Z,78.21
2018-11-02T03:35:21.369Z,77.34
2018-11-02T03:37:49.421Z,77.03
2018-11-02T03:40:17.435Z,77.48
2018-11-02T03:42:45.460Z,78.36
2018-11-02T03:45:13.560Z,78.27
2018-11-02T03:47:41.644Z,80.33
2018-11-02T03:50:11.191Z,80.60
2018-11-02T03:52:39.715Z,81.40
2018-11-02T03:55:08.550Z,81.91
2018-11-02T03:57:36.611Z,82.32
2018-11-02T04:00:05.788Z,81.97
2018-11-02T04:02:33.816Z,82.00
2018-11-02T04:05:02.910Z,82.11
2018-11-02T04:07:31.385Z,82.26
2018-11-02T04:09:59.440Z,82.47
2018-11-02T04:12:29.419Z,80.97
2018-11-02T04:14:58.985Z,81.38
2018-11-02T04:17:26.942Z,81.02
2018-11-02T04:19:55.063Z,80.04
2018-11-02T04:22:23.037Z,81.48
2018-11-02T04:24:51.002Z,81.98
2018-11-02T04:27:18.978Z,81.69
2018-11-02T04:29:47.762Z,81.67
2018-11-02T04:32:15.819Z,81.49
2018-11-02T04:34:43.804Z,81.85
2018-11-02T04:37:11.808Z,80.31
2018-11-02T04:39:39.879Z,81.21
2018-11-02T04:42:07.835Z,81.09
2018-11-02T04:44:35.824Z,81.37
2018-11-02T04:47:03.816Z,80.57
2018-11-02T04:49:31.830Z,80.80
2018-11-02T04:51:59.962Z,81.32
2018-11-02T04:54:27.920Z,81.47
2018-11-02T04:56:55.917Z,80.86
2018-11-02T04:59:23.860Z,81.10
2018-11-02T05:01:51.891Z,81.21
2018-11-02T05:04:19.840Z,81.35
2018-11-02T05:06:47.821Z,80.90
2018-11-02T05:09:15.803Z,81.24
2018-11-02T05:11:43.912Z,80.66
2018-11-02T05:14:11.896Z,80.11
2018-11-02T05:16:39.877Z,80.38
2018-11-02T05:19:07.850Z,80.24
2018-11-02T05:21:35.785Z,79.86
2018-11-02T05:24:03.868Z,80.13
2018-11-02T05:26:31.802Z,79.87
2018-11-02T05:28:59.691Z,79.40
2018-11-02T05:31:27.641Z,79.89
2018-11-02T05:33:55.703Z,78.93
2018-11-02T05:36:23.701Z,79.34
2018-11-02T05:38:51.693Z,79.37
2018-11-02T05:41:19.641Z,79.18
2018-11-02T05:43:47.604Z,79.12
2018-11-02T05:46:15.615Z,78.97
2018-11-02T05:48:43.568Z,78.84
2018-11-02T05:51:11.726Z,78.99
2018-11-02T05:53:39.706Z,78.89
2018-11-02T05:56:07.861Z,78.71
2018-11-02T05:58:36.664Z,78.04
2018-11-02T06:01:05.302Z,77.93
2018-11-02T06:03:33.290Z,78.02
2018-11-02T06:06:03.042Z,77.99
2018-11-02T06:08:33.069Z,77.83
2018-11-02T06:11:01.100Z,77.84
2018-11-02T06:13:29.136Z,77.18
2018-11-02T06:15:57.110Z,76.77
2018-11-02T06:18:25.668Z,76.74
2018-11-02T06:20:55.714Z,76.97
2018-11-02T06:23:23.733Z,77.20
2018-11-02T06:25:51.678Z,76.71
2018-11-02T06:28:19.660Z,75.92
2018-11-02T06:30:49.756Z,76.12
2018-11-02T06:33:18.834Z,76.45
2018-11-02T06:35:46.832Z,76.10
2018-11-02T06:38:14.821Z,76.02
2018-11-02T06:40:42.853Z,75.79
2018-11-02T06:43:11.400Z,76.24
2018-11-02T06:45:41.345Z,76.07
2018-11-02T06:48:10.156Z,76.41
2018-11-02T06:50:38.259Z,76.53
2018-11-02T06:53:06.202Z,75.07
2018-11-02T06:55:34.180Z,74.85
2018-11-02T06:58:02.279Z,75.07
2018-11-02T07:00:30.542Z,74.91
2018-11-02T07:02:58.530Z,75.44
2018-11-02T07:05:31.723Z,75.04
2018-11-02T07:08:01.196Z,75.24
2018-11-02T07:10:28.929Z,75.19
2018-11-02T07:12:57.035Z,75.76
2018-11-02T07:15:25.020Z,75.93
2018-11-02T07:17:53.094Z,75.78
2018-11-02T07:20:44.003Z,75.77
2018-11-02T07:23:12.156Z,76.42
2018-11-02T07:25:40.190Z,76.59
2018-11-02T07:28:08.698Z,76.71
2018-11-02T07:30:36.744Z,76.25
2018-11-02T07:33:04.973Z,76.67
2018-11-02T07:35:32.919Z,77.28
2018-11-02T07:38:01.169Z,76.49
2018-11-02T07:40:30.264Z,76.38
2018-11-02T07:42:58.221Z,76.21
2018-11-02T07:45:26.347Z,76.49
2018-11-02T07:47:54.353Z,76.13
2018-11-02T07:50:22.344Z,75.57
2018-11-02T07:52:50.744Z,75.35
2018-11-02T07:55:18.710Z,75.55
2018-11-02T07:57:46.648Z,75.11
2018-11-02T08:00:16.057Z,75.08
2018-11-02T08:02:45.724Z,74.84
2018-11-02T08:05:14.335Z,74.71
2018-11-02T08:07:42.496Z,75.23
2018-11-02T08:10:10.586Z,75.37
2018-11-02T08:12:38.630Z,75.53
2018-11-02T08:15:08.401Z,75.38
2018-11-02T08:17:37.312Z,75.19
2018-11-02T08:20:05.797Z,75.10
2018-11-02T08:22:33.849Z,75.41
2018-11-02T08:25:01.833Z,75.45
2018-11-02T08:27:31.409Z,75.00
2018-11-02T08:30:00.153Z,75.54
2018-11-02T08:32:28.238Z,74.76
2018-11-02T08:34:56.177Z,74.61
2018-11-02T08:37:24.124Z,74.03
2018-11-02T08:39:52.037Z,74.58
2018-11-02T08:42:20.099Z,75.21
2018-11-02T08:44:48.158Z,75.75
2018-11-02T08:47:16.309Z,75.23
2018-11-02T08:49:44.485Z,74.73
2018-11-02T08:52:12.604Z,74.84
2018-11-02T08:54:40.573Z,74.20
2018-11-02T08:57:08.594Z,74.56
2018-11-02T08:59:36.734Z,74.73
2018-11-02T09:02:04.676Z,73.98
2018-11-02T09:04:32.739Z,71.36
2018-11-02T09:07:01.188Z,70.93
2018-11-02T09:09:29.207Z,70.92
2018-11-02T09:11:57.212Z,72.38
2018-11-02T09:14:25.203Z,70.39
2018-11-02T09:16:53.178Z,69.06
2018-11-02T09:19:21.249Z,70.26
2018-11-02T09:21:49.154Z,67.72
2018-11-02T09:24:17.262Z,68.54
2018-11-02T09:26:45.242Z,67.30
2018-11-02T09:29:13.233Z,66.92
2018-11-02T09:31:41.252Z,68.32
2018-11-02T09:34:09.280Z,67.93
2018-11-02T09:36:37.688Z,66.49
2018-11-02T09:39:08.027Z,68.58
2018-11-02T09:41:36.109Z,68.99
2018-11-02T09:44:04.660Z,68.14
2018-11-02T09:46:32.683Z,67.41
2018-11-02T09:49:00.814Z,69.35
2018-11-02T09:51:28.930Z,69.88
2018-11-02T09:53:56.957Z,71.08
2018-11-02T09:56:25.063Z,70.00
2018-11-02T09:58:53.204Z,66.67
2018-11-02T10:01:21.476Z,68.98
2018-11-02T10:03:49.596Z,65.18
2018-11-02T10:06:17.605Z,68.07
2018-11-02T10:08:45.773Z,70.42
2018-11-02T10:11:15.608Z,69.19
2018-11-02T10:13:43.772Z,68.47
2018-11-02T10:16:12.761Z,67.23
2018-11-02T10:18:40.841Z,67.45
2018-11-02T10:21:08.856Z,70.74
2018-11-02T10:23:37.316Z,68.90
2018-11-02T10:26:05.485Z,68.34
2018-11-02T10:28:33.614Z,68.27
2018-11-02T10:31:01.823Z,69.12
2018-11-02T10:33:30.739Z,67.99
2018-11-02T10:35:59.092Z,68.89
2018-11-02T10:38:27.227Z,69.08
2018-11-02T10:40:57.193Z,67.62
2018-11-02T10:43:26.507Z,67.32
2018-11-02T10:45:57.701Z,68.73
2018-11-02T10:48:27.057Z,68.19
2018-11-02T10:50:55.231Z,64.54
2018-11-02T10:53:23.722Z,66.20
2018-11-02T10:55:52.945Z,63.86
2018-11-02T10:58:21.056Z,64.01
2018-11-02T11:00:54.887Z,64.62
2018-11-02T11:03:23.166Z,63.60
2018-11-02T11:05:51.252Z,65.00
2018-11-02T11:08:19.432Z,65.77
2018-11-02T11:10:47.465Z,65.23
2018-11-02T11:13:16.595Z,64.19
2018-11-02T11:15:44.384Z,65.07
2018-11-02T11:18:12.431Z,68.51
2018-11-02T11:20:40.492Z,69.07
2018-11-02T11:23:08.691Z,66.41
2018-11-02T11:25:36.817Z,67.52
2018-11-02T11:28:05.222Z,67.02
2018-11-02T11:30:33.318Z,68.14
2018-11-02T11:33:01.578Z,67.80
2018-11-02T11:35:29.658Z,65.39
2018-11-02T11:37:57.688Z,66.22
2018-11-02T11:40:25.665Z,64.60
2018-11-02T11:42:53.652Z,66.08
2018-11-02T11:45:21.619Z,65.76
2018-11-02T11:47:49.838Z,65.01
2018-11-02T11:50:20.499Z,62.94
2018-11-02T11:52:49.848Z,66.53
2018-11-02T11:55:18.042Z,65.47
2018-11-02T11:57:46.095Z,64.98
2018-11-02T12:00:16.054Z,65.32
2018-11-02T12:02:45.042Z,67.71
2018-11-02T12:05:14.522Z,62.94
2018-11-02T12:07:42.843Z,64.68
2018-11-02T12:10:15.265Z,62.78
2018-11-02T12:12:43.335Z,66.38
2018-11-02T12:15:13.551Z,64.54
2018-11-02T12:17:42.280Z,62.91
2018-11-02T12:20:13.368Z,62.98
2018-11-02T12:22:41.842Z,63.16
2018-11-02T12:25:11.645Z,62.71
2018-11-02T12:27:39.805Z,62.86
2018-11-02T12:30:09.686Z,63.06
2018-11-02T12:32:37.874Z,62.88
2018-11-02T12:35:07.355Z,61.14
2018-11-02T12:37:35.852Z,63.25
2018-11-02T12:40:05.025Z,59.68
2018-11-02T12:42:32.953Z,58.85
2018-11-02T12:45:00.978Z,59.81
2018-11-02T12:47:28.968Z,59.42
2018-11-02T12:49:57.026Z,61.78
2018-11-02T12:52:24.940Z,64.63
2018-11-02T12:54:53.003Z,62.57
2018-11-02T12:57:20.969Z,61.46
2018-11-02T12:59:48.907Z,61.62
2018-11-02T13:02:16.859Z,62.97
2018-11-02T13:04:44.839Z,60.20
2018-11-02T13:07:13.006Z,58.57
2018-11-02T13:09:41.139Z,58.72
2018-11-02T13:12:09.047Z,57.94
2018-11-02T13:14:36.992Z,57.81
2018-11-02T13:17:05.178Z,58.90
2018-11-02T13:19:33.205Z,57.78
2018-11-02T13:22:02.232Z,60.65
2018-11-02T13:24:30.197Z,57.59
2018-11-02T13:26:58.181Z,59.06
2018-11-02T13:29:26.192Z,59.41
2018-11-02T13:31:54.261Z,57.76
2018-11-02T13:34:22.177Z,55.79
2018-11-02T13:36:50.272Z,58.03
2018-11-02T13:39:18.220Z,60.50
2018-11-02T13:41:49.129Z,56.85
2018-11-02T13:44:18.045Z,58.83
2018-11-02T13:46:47.619Z,57.94
2018-11-02T13:49:22.701Z,57.55
2018-11-02T13:51:50.732Z,57.75
2018-11-02T13:54:19.506Z,58.24
2018-11-02T13:56:47.482Z,63.39
2018-11-02T13:59:15.534Z,59.19
2018-11-02T14:01:44.278Z,60.94
2018-11-02T14:04:12.520Z,58.86
2018-11-02T14:06:40.608Z,63.84
2018-11-02T14:09:08.695Z,59.78
2018-11-02T14:11:36.953Z,63.21
2018-11-02T14:14:05.028Z,60.77
2018-11-02T14:16:33.048Z,59.32
2018-11-02T14:19:00.993Z,60.62
2018-11-02T14:21:28.987Z,60.25
2018-11-02T14:23:57.816Z,60.00
2018-11-02T14:26:25.787Z,65.95
2018-11-02T14:28:53.832Z,60.77
2018-11-02T14:31:21.819Z,61.26
2018-11-02T14:33:49.792Z,61.17
2018-11-02T14:36:18.592Z,62.79
2018-11-02T14:38:47.081Z,62.15
2018-11-02T14:41:15.116Z,62.89
2018-11-02T14:43:43.116Z,63.43
2018-11-02T14:46:11.101Z,64.55
2018-11-02T14:48:39.065Z,66.31
2018-11-02T14:51:07.937Z,61.69
2018-11-02T14:53:35.958Z,61.23
2018-11-02T14:56:03.869Z,66.01
2018-11-02T14:58:31.805Z,66.65
2018-11-02T15:01:00.534Z,65.60
2018-11-02T15:03:30.321Z,69.28
2018-11-02T15:05:58.348Z,66.16
2018-11-02T15:08:26.259Z,66.52
2018-11-02T15:11:03.623Z,66.48
2018-11-02T15:13:33.410Z,70.03
2018-11-02T15:16:02.695Z,67.14
2018-11-02T15:18:31.669Z,66.40
2018-11-02T15:21:02.483Z,65.53
2018-11-02T15:23:41.762Z,65.34
2018-11-02T15:26:09.920Z,65.49
2018-11-02T15:28:38.125Z,64.30
2018-11-02T15:31:06.398Z,67.32
2018-11-02T15:33:34.496Z,65.62
2018-11-02T15:36:02.659Z,67.48
2018-11-02T15:38:30.734Z,64.63
2018-11-02T15:40:58.794Z,66.42
2018-11-02T15:43:26.792Z,64.34
2018-11-02T15:45:54.809Z,63.75
2018-11-02T15:48:22.809Z,63.14
2018-11-02T15:50:50.819Z,63.76
2018-11-02T15:53:20.461Z,63.54
2018-11-02T15:55:48.478Z,63.12
2018-11-02T15:58:16.466Z,63.34
2018-11-02T16:00:44.618Z,63.51
2018-11-02T16:03:12.497Z,64.01
2018-11-02T16:05:40.566Z,63.67
2018-11-02T16:08:08.639Z,64.05
2018-11-02T16:10:36.650Z,65.99
2018-11-02T16:13:04.758Z,66.94
2018-11-02T16:15:32.875Z,63.91
2018-11-02T16:18:07.089Z,66.90
2018-11-02T16:20:39.851Z,65.39
2018-11-02T16:23:07.902Z,67.37
2018-11-02T16:25:35.933Z,65.95
2018-11-02T16:28:03.990Z,65.96
2018-11-02T16:30:32.220Z,65.89
2018-11-02T16:33:00.185Z,65.71
2018-11-02T16:35:28.203Z,66.19
2018-11-02T16:37:56.257Z,66.12
2018-11-02T16:40:24.313Z,68.82
2018-11-02T16:42:52.298Z,68.70
2018-11-02T16:45:20.445Z,66.04
2018-11-02T16:47:48.548Z,65.92
2018-11-02T16:50:16.511Z,66.69
2018-11-02T16:52:44.767Z,69.09
2018-11-02T16:55:12.702Z,66.60
2018-11-02T16:57:40.731Z,66.50
2018-11-02T17:00:12.388Z,66.50
2018-11-02T17:02:40.435Z,66.06
2018-11-02T17:05:09.016Z,66.33
2018-11-02T17:07:36.840Z,66.55
2018-11-02T17:10:05.921Z,66.62
2018-11-02T17:12:33.868Z,68.36
2018-11-02T17:15:02.425Z,70.88
2018-11-02T17:17:30.433Z,69.25
2018-11-02T17:19:58.458Z,67.29
2018-11-02T17:22:26.512Z,69.07
2018-11-02T17:24:54.404Z,67.76
2018-11-02T17:27:22.380Z,69.20
2018-11-02T17:29:50.399Z,67.90
2018-11-02T17:32:18.423Z,68.44
2018-11-02T17:34:46.390Z,69.21
2018-11-02T17:37:14.436Z,68.53
2018-11-02T17:39:42.530Z,67.61
2018-11-02T17:42:10.524Z,67.23
2018-11-02T17:44:38.549Z,67.11
2018-11-02T17:47:07.240Z,66.84
2018-11-02T17:49:35.489Z,66.57
2018-11-02T17:52:03.569Z,66.20
2018-11-02T17:54:31.622Z,66.09
2018-11-02T17:56:59.585Z,66.17
2018-11-02T17:59:27.832Z,66.22
2018-11-02T18:01:55.858Z,66.11
2018-11-02T18:04:23.973Z,66.10
2018-11-02T18:06:52.162Z,66.14
2018-11-02T18:09:20.127Z,65.74
2018-11-02T18:11:49.845Z,65.98
2018-11-02T18:14:17.811Z,65.93
2018-11-02T18:16:45.926Z,65.72
2018-11-02T18:19:13.922Z,65.54
2018-11-02T18:21:41.994Z,65.47
2018-11-02T18:24:10.066Z,66.40
2018-11-02T18:26:38.021Z,66.07
2018-11-02T18:29:06.049Z,65.93
2018-11-02T18:31:34.026Z,65.90
2018-11-02T18:34:02.119Z,65.84
2018-11-02T18:36:30.199Z,65.84
2018-11-02T18:38:58.234Z,65.56
2018-11-02T18:41:26.270Z,65.76
2018-11-02T18:43:54.234Z,65.78
2018-11-02T18:46:22.317Z,65.84
2018-11-02T18:48:50.264Z,65.63
2018-11-02T18:51:18.336Z,65.70
2018-11-02T18:53:46.353Z,65.88
2018-11-02T18:56:14.367Z,66.03
2018-11-02T18:58:42.360Z,66.02
2018-11-02T19:01:10.394Z,66.25
2018-11-02T19:03:38.631Z,66.20
2018-11-02T19:06:06.702Z,66.31
2018-11-02T19:08:34.676Z,66.36
2018-11-02T19:11:02.689Z,66.27
2018-11-02T19:13:30.767Z,66.44
2018-11-02T19:15:58.767Z,66.78
2018-11-02T19:18:27.017Z,66.59
2018-11-02T19:20:55.039Z,66.90
2018-11-02T19:23:23.134Z,66.69
2018-11-02T19:25:51.118Z,66.55
2018-11-02T19:28:19.148Z,66.77
2018-11-02T19:30:47.226Z,66.69
2018-11-02T19:33:15.208Z,66.88
2018-11-02T19:35:43.231Z,67.43
2018-11-02T19:38:11.443Z,68.05
2018-11-02T19:40:39.145Z,67.78
2018-11-02T19:43:07.134Z,67.79
2018-11-02T19:45:35.077Z,68.15
2018-11-02T19:48:04.094Z,67.94
2018-11-02T19:50:32.102Z,68.45
2018-11-02T19:53:00.166Z,68.61
2018-11-02T19:55:28.222Z,68.80
2018-11-02T19:57:56.179Z,69.69
2018-11-02T20:00:24.249Z,69.54
2018-11-02T20:02:52.346Z,71.06
2018-11-02T20:05:20.873Z,71.56
2018-11-02T20:07:48.878Z,70.17
2018-11-02T20:10:17.645Z,70.38
2018-11-02T20:12:47.686Z,70.34
2018-11-02T20:15:16.623Z,70.35
2018-11-02T20:17:44.796Z,70.51
2018-11-02T20:20:13.954Z,70.58
2018-11-02T20:22:41.962Z,70.32
2018-11-02T20:25:11.901Z,70.35
2018-11-02T20:27:40.621Z,70.13
2018-11-02T20:30:11.828Z,69.94
2018-11-02T20:32:42.320Z,69.62
2018-11-02T20:35:11.189Z,69.39
2018-11-02T20:37:39.670Z,68.81
2018-11-02T20:40:10.475Z,69.00
2018-11-02T20:42:38.876Z,68.74
2018-11-02T20:45:07.261Z,69.09
2018-11-02T20:47:40.965Z,68.79
2018-11-02T20:50:10.152Z,68.76
2018-11-02T20:52:38.510Z,68.83
2018-11-02T20:55:07.581Z,68.69
2018-11-02T20:57:35.989Z,68.97
2018-11-02T21:00:04.952Z,68.96
2018-11-02T21:02:33.057Z,68.83
2018-11-02T21:05:02.061Z,68.91
2018-11-02T21:07:30.029Z,68.70
2018-11-02T21:09:58.420Z,68.68
2018-11-02T21:12:26.405Z,68.81
2018-11-02T21:14:54.544Z,68.83
2018-11-02T21:17:22.436Z,68.89
2018-11-02T21:19:53.387Z,69.04
2018-11-02T21:22:22.303Z,69.18
2018-11-02T21:24:50.346Z,69.11
2018-11-02T21:27:19.590Z,68.93
2018-11-02T21:29:47.757Z,69.12
2018-11-02T21:32:15.855Z,69.23
2018-11-02T21:34:44.089Z,69.48
2018-11-02T21:37:12.148Z,69.46
2018-11-02T21:39:40.341Z,69.46
2018-11-02T21:42:08.578Z,69.59
2018-11-02T21:44:37.159Z,69.49
2018-11-02T21:47:05.846Z,69.67
2018-11-02T21:49:33.976Z,69.78
2018-11-02T21:52:01.938Z,70.41
2018-11-02T21:54:29.890Z,70.36
2018-11-02T21:56:57.884Z,70.87
2018-11-02T21:59:26.213Z,70.12
2018-11-02T22:01:54.253Z,70.15
2018-11-02T22:04:22.328Z,70.34
2018-11-02T22:06:50.416Z,70.26
2018-11-02T22:09:18.412Z,70.32
2018-11-02T22:11:46.334Z,70.69
2018-11-02T22:14:14.302Z,71.07
2018-11-02T22:16:42.215Z,71.41
2018-11-02T22:19:10.286Z,71.54
2018-11-02T22:21:38.211Z,71.34
2018-11-02T22:24:06.164Z,71.26
2018-11-02T22:26:34.058Z,71.28
2018-11-02T22:29:02.170Z,71.40
2018-11-02T22:31:30.048Z,71.56
2018-11-02T22:33:57.987Z,71.82
2018-11-02T22:36:26.011Z,71.66
2018-11-02T22:38:53.976Z,71.89
2018-11-02T22:41:21.925Z,71.85
2018-11-02T22:43:49.880Z,71.95
2018-11-02T22:46:17.810Z,71.65
2018-11-02T22:48:45.822Z,71.70
2018-11-02T22:51:13.772Z,71.69
2018-11-02T22:53:41.704Z,71.59
2018-11-02T22:56:09.682Z,71.50
2018-11-02T22:58:37.651Z,71.51
2018-11-02T23:01:11.498Z,71.23
2018-11-02T23:03:39.469Z,71.00
2018-11-02T23:06:07.556Z,70.62
2018-11-02T23:08:35.560Z,70.47
2018-11-02T23:11:03.525Z,70.23
2018-11-02T23:13:31.496Z,70.39
2018-11-02T23:15:59.541Z,70.40
2018-11-02T23:18:27.831Z,70.52
2018-11-02T23:20:55.861Z,70.44
2018-11-02T23:23:23.846Z,70.37
2018-11-02T23:25:51.933Z,70.34
2018-11-02T23:28:19.979Z,70.32
2018-11-02T23:30:47.942Z,70.19
2018-11-02T23:33:15.917Z,69.90
2018-11-02T23:35:43.941Z,69.66
2018-11-02T23:38:11.914Z,69.57
2018-11-02T23:40:39.877Z,69.52
2018-11-02T23:43:07.850Z,69.61
2018-11-02T23:45:35.803Z,69.51
2018-11-02T23:48:10.867Z,69.85
2018-11-02T23:50:38.846Z,69.73
2018-11-02T23:53:06.921Z,69.73
2018-11-02T23:55:34.861Z,69.82
2018-11-02T23:58:02.928Z,69.77
